createdAt,value
2023-02-04T00:01:52.803Z,75.48
2023-02-04T00:04:41.990Z,74.98
2023-02-04T00:07:31.232Z,74.10
2023-02-04T00:10:22.084Z,73.42
2023-02-04T00:13:11.517Z,73.02
2023-02-04T00:16:00.971Z,72.79
2023-02-04T00:18:50.301Z,72.23
2023-02-04T00:21:39.574Z,72.18
2023-02-04T00:24:28.807Z,72.16
2023-02-04T00:27:19.409Z,71.42
2023-02-04T00:30:10.372Z,71.72
2023-02-04T00:32:59.684Z,71.29
2023-02-04T00:35:49.013Z,71.22
2023-02-04T00:38:38.320Z,71.60
2023-02-04T00:41:27.644Z,71.13
2023-02-04T00:44:18.293Z,71.25
2023-02-04T00:47:07.519Z,71.53
2023-02-04T00:49:56.739Z,71.66
2023-02-04T00:52:45.958Z,71.71
2023-02-04T00:55:35.131Z,71.67
2023-02-04T00:58:24.416Z,71.39
2023-02-04T01:01:15.023Z,70.91
2023-02-04T01:04:04.506Z,70.93
2023-02-04T01:06:53.776Z,70.28
2023-02-04T01:09:43.002Z,69.60
2023-02-04T01:12:32.407Z,69.90
2023-02-04T01:15:23.024Z,69.21
2023-02-04T01:18:14.448Z,68.66
2023-02-04T01:21:04.234Z,68.97
2023-02-04T01:23:53.608Z,68.72
2023-02-04T01:26:42.852Z,68.88
2023-02-04T01:29:33.363Z,68.20
2023-02-04T01:32:22.598Z,67.94
2023-02-04T01:35:13.302Z,68.13
2023-02-04T01:38:02.595Z,67.75
2023-02-04T01:40:51.884Z,67.60
2023-02-04T01:43:41.274Z,67.29
2023-02-04T01:46:30.519Z,67.06
2023-02-04T01:49:20.126Z,66.75
2023-02-04T01:52:12.776Z,67.05
2023-02-04T01:55:02.191Z,66.91
2023-02-04T01:57:53.383Z,66.92
2023-02-04T02:00:42.781Z,67.14
2023-02-04T02:03:32.028Z,66.98
2023-02-04T02:06:21.250Z,67.29
2023-02-04T02:09:12.276Z,67.19
2023-02-04T02:12:04.423Z,67.21
2023-02-04T02:14:54.194Z,66.68
2023-02-04T02:17:44.540Z,66.88
2023-02-04T02:20:34.982Z,66.74
2023-02-04T02:23:30.568Z,66.44
2023-02-04T02:26:23.222Z,66.49
2023-02-04T02:29:13.205Z,66.51
2023-02-04T02:32:02.882Z,66.52
2023-02-04T02:34:52.087Z,66.12
2023-02-04T02:37:41.598Z,66.03
2023-02-04T02:40:31.309Z,66.04
2023-02-04T02:43:25.180Z,65.58
2023-02-04T02:46:14.399Z,65.72
2023-02-04T02:49:03.782Z,66.02
2023-02-04T02:51:53.027Z,65.79
2023-02-04T02:54:43.669Z,65.66
2023-02-04T02:57:35.654Z,66.01
2023-02-04T03:00:30.241Z,65.90
2023-02-04T03:03:25.767Z,65.79
2023-02-04T03:06:18.092Z,66.13
2023-02-04T03:09:07.494Z,65.88
2023-02-04T03:11:56.944Z,65.58
2023-02-04T03:14:46.764Z,65.50
2023-02-04T03:17:37.657Z,65.65
2023-02-04T03:20:31.695Z,65.34
2023-02-04T03:23:22.304Z,65.13
2023-02-04T03:26:11.586Z,64.79
2023-02-04T03:29:01.295Z,64.22
2023-02-04T03:31:50.725Z,63.93
2023-02-04T03:34:41.365Z,63.29
2023-02-04T03:37:30.621Z,63.31
2023-02-04T03:40:20.033Z,62.58
2023-02-04T03:43:09.249Z,62.67
2023-02-04T03:45:58.485Z,62.58
2023-02-04T03:48:47.740Z,62.06
2023-02-04T03:51:38.615Z,62.48
2023-02-04T03:54:27.826Z,62.18
2023-02-04T03:57:17.065Z,62.42
2023-02-04T04:00:07.194Z,62.67
2023-02-04T04:03:01.500Z,62.55
2023-02-04T04:05:50.773Z,62.28
2023-02-04T04:08:41.394Z,62.08
2023-02-04T04:11:30.621Z,62.48
2023-02-04T04:14:19.928Z,62.21
2023-02-04T04:17:09.233Z,62.06
2023-02-04T04:19:58.633Z,61.49
2023-02-04T04:22:48.034Z,61.62
2023-02-04T04:25:38.626Z,61.47
2023-02-04T04:28:28.944Z,61.70
2023-02-04T04:31:18.276Z,62.13
2023-02-04T04:34:07.593Z,62.13
2023-02-04T04:36:56.868Z,62.51
2023-02-04T04:39:46.068Z,62.34
2023-02-04T04:42:36.658Z,62.57
2023-02-04T04:45:25.928Z,62.88
2023-02-04T04:48:15.216Z,62.74
2023-02-04T04:51:04.712Z,62.91
2023-02-04T04:53:54.167Z,63.00
2023-02-04T04:56:43.589Z,63.02
2023-02-04T04:59:34.193Z,62.66
2023-02-04T05:02:23.402Z,63.25
2023-02-04T05:05:13.402Z,63.03
2023-02-04T05:08:02.603Z,63.16
2023-02-04T05:10:51.897Z,63.65
2023-02-04T05:13:41.064Z,63.69
2023-02-04T05:16:32.197Z,63.21
2023-02-04T05:19:21.506Z,63.34
2023-02-04T05:22:10.810Z,63.19
2023-02-04T05:25:00.477Z,62.93
2023-02-04T05:27:50.139Z,63.15
2023-02-04T05:30:39.395Z,63.15
2023-02-04T05:33:29.950Z,63.28
2023-02-04T05:36:19.209Z,62.96
2023-02-04T05:39:08.444Z,63.19
2023-02-04T05:41:57.717Z,63.21
2023-02-04T05:44:46.942Z,62.85
2023-02-04T05:47:36.360Z,62.68
2023-02-04T05:50:27.068Z,62.84
2023-02-04T05:53:30.467Z,62.72
2023-02-04T05:56:19.989Z,62.52
2023-02-04T05:59:09.349Z,62.56
2023-02-04T06:01:58.618Z,62.70
2023-02-04T06:04:47.839Z,62.63
2023-02-04T06:07:38.467Z,62.73
2023-02-04T06:10:27.826Z,62.94
2023-02-04T06:13:17.217Z,62.83
2023-02-04T06:16:06.957Z,62.91
2023-02-04T06:18:56.232Z,63.09
2023-02-04T06:21:46.117Z,62.63
2023-02-04T06:24:36.999Z,62.66
2023-02-04T06:27:26.799Z,62.84
2023-02-04T06:30:17.216Z,62.36
2023-02-04T06:33:06.374Z,63.06
2023-02-04T06:35:55.907Z,62.98
2023-02-04T06:38:46.286Z,63.10
2023-02-04T06:41:36.898Z,63.58
2023-02-04T06:44:26.279Z,63.16
2023-02-04T06:47:15.675Z,63.28
2023-02-04T06:50:05.087Z,63.56
2023-02-04T06:52:54.316Z,63.25
2023-02-04T06:55:43.507Z,63.80
2023-02-04T06:58:34.195Z,63.59
2023-02-04T07:01:23.396Z,63.59
2023-02-04T07:04:12.699Z,63.45
2023-02-04T07:07:01.902Z,63.81
2023-02-04T07:09:51.139Z,63.59
2023-02-04T07:12:40.327Z,63.75
2023-02-04T07:15:31.833Z,63.85
2023-02-04T07:18:21.203Z,63.83
2023-02-04T07:21:10.470Z,63.97
2023-02-04T07:23:59.626Z,64.14
2023-02-04T07:26:48.806Z,64.07
2023-02-04T07:29:38.127Z,64.39
2023-02-04T07:32:32.921Z,64.03
2023-02-04T07:35:22.397Z,64.23
2023-02-04T07:38:11.558Z,64.21
2023-02-04T07:41:00.846Z,64.48
2023-02-04T07:43:50.263Z,64.14
2023-02-04T07:46:39.684Z,63.96
2023-02-04T07:49:30.360Z,63.81
2023-02-04T07:52:19.575Z,63.81
2023-02-04T07:55:10.292Z,64.30
2023-02-04T07:57:59.514Z,64.42
2023-02-04T08:00:48.715Z,64.45
2023-02-04T08:03:38.443Z,64.24
2023-02-04T08:06:30.478Z,64.26
2023-02-04T08:09:19.754Z,64.61
2023-02-04T08:12:09.108Z,64.88
2023-02-04T08:14:58.407Z,64.50
2023-02-04T08:17:47.587Z,64.48
2023-02-04T08:20:36.799Z,64.64
2023-02-04T08:23:27.556Z,64.99
2023-02-04T08:26:16.920Z,65.36
2023-02-04T08:29:06.132Z,66.16
2023-02-04T08:31:55.522Z,65.87
2023-02-04T08:34:45.110Z,66.94
2023-02-04T08:37:34.338Z,67.38
2023-02-04T08:40:24.915Z,68.06
2023-02-04T08:43:14.526Z,67.75
2023-02-04T08:46:03.729Z,67.69
2023-02-04T08:48:52.954Z,67.87
2023-02-04T08:51:42.178Z,68.57
2023-02-04T08:54:31.576Z,68.73
2023-02-04T08:57:22.149Z,68.89
2023-02-04T09:00:14.361Z,68.93
2023-02-04T09:03:03.636Z,69.88
2023-02-04T09:05:53.178Z,70.08
2023-02-04T09:08:43.227Z,70.20
2023-02-04T09:11:32.482Z,70.21
2023-02-04T09:14:23.088Z,70.17
2023-02-04T09:17:12.359Z,71.13
2023-02-04T09:20:01.606Z,70.15
2023-02-04T09:22:50.845Z,70.42
2023-02-04T09:25:40.702Z,70.11
2023-02-04T09:28:29.999Z,70.08
2023-02-04T09:31:20.855Z,70.10
2023-02-04T09:34:10.280Z,69.88
2023-02-04T09:36:59.449Z,69.68
2023-02-04T09:39:48.632Z,70.03
2023-02-04T09:42:37.937Z,69.22
2023-02-04T09:45:29.333Z,69.32
2023-02-04T09:48:20.743Z,69.12
2023-02-04T09:51:13.586Z,69.27
2023-02-04T09:54:09.864Z,68.98
2023-02-04T09:56:59.626Z,68.98
2023-02-04T09:59:50.817Z,68.84
2023-02-04T10:02:39.972Z,68.81
2023-02-04T10:05:33.406Z,68.67
2023-02-04T10:08:29.310Z,68.87
2023-02-04T10:11:21.981Z,68.61
2023-02-04T10:14:18.890Z,69.03
2023-02-04T10:17:10.480Z,68.72
2023-02-04T10:19:59.749Z,69.24
2023-02-04T10:22:53.625Z,69.31
2023-02-04T10:25:42.780Z,69.30
2023-02-04T10:28:36.747Z,68.66
2023-02-04T10:31:37.990Z,68.65
2023-02-04T10:34:39.861Z,68.86
2023-02-04T10:37:30.752Z,68.87
2023-02-04T10:40:33.135Z,68.76
2023-02-04T10:43:24.799Z,69.30
2023-02-04T10:46:14.044Z,69.44
2023-02-04T10:49:06.342Z,68.95
2023-02-04T10:51:57.609Z,68.81
2023-02-04T10:54:47.030Z,69.00
2023-02-04T10:57:41.006Z,68.34
2023-02-04T11:00:31.156Z,68.19
2023-02-04T11:03:25.123Z,68.00
2023-02-04T11:06:19.422Z,67.86
2023-02-04T11:09:13.960Z,67.57
2023-02-04T11:12:03.184Z,67.94
2023-02-04T11:15:00.418Z,67.38
2023-02-04T11:18:05.574Z,67.43
2023-02-04T11:20:58.308Z,67.46
2023-02-04T11:23:47.623Z,67.08
2023-02-04T11:26:40.251Z,67.57
2023-02-04T11:29:38.303Z,66.78
2023-02-04T11:32:39.792Z,67.08
2023-02-04T11:35:30.877Z,66.86
2023-02-04T11:38:28.507Z,66.24
2023-02-04T11:41:30.242Z,65.80
2023-02-04T11:44:19.913Z,65.60
2023-02-04T11:47:10.058Z,65.44
2023-02-04T11:50:14.047Z,63.98
2023-02-04T11:53:03.907Z,62.95
2023-02-04T11:55:53.123Z,62.60
2023-02-04T11:58:42.528Z,62.85
2023-02-04T12:01:34.786Z,62.66
2023-02-04T12:04:26.384Z,62.82
2023-02-04T12:07:27.183Z,61.26
2023-02-04T12:10:25.844Z,60.98
2023-02-04T12:13:19.677Z,60.21
2023-02-04T12:16:09.453Z,59.07
2023-02-04T12:18:59.134Z,58.29
2023-02-04T12:21:48.381Z,58.29
2023-02-04T12:24:38.972Z,58.16
2023-02-04T12:27:28.143Z,58.53
2023-02-04T12:30:18.632Z,58.65
2023-02-04T12:33:08.281Z,58.74
2023-02-04T12:35:57.729Z,59.31
2023-02-04T12:38:46.918Z,59.60
2023-02-04T12:41:37.522Z,59.65
2023-02-04T12:44:26.733Z,59.22
2023-02-04T12:47:15.949Z,59.32
2023-02-04T12:50:05.866Z,59.06
2023-02-04T12:52:58.202Z,58.45
2023-02-04T12:55:47.419Z,58.66
2023-02-04T12:58:37.984Z,58.26
2023-02-04T13:01:27.229Z,57.78
2023-02-04T13:04:16.560Z,56.60
2023-02-04T13:07:07.447Z,56.75
2023-02-04T13:09:57.489Z,56.72
2023-02-04T13:12:47.202Z,56.23
2023-02-04T13:15:37.765Z,55.83
2023-02-04T13:18:27.008Z,55.99
2023-02-04T13:21:16.313Z,56.17
2023-02-04T13:24:05.911Z,55.45
2023-02-04T13:26:58.818Z,55.26
2023-02-04T13:29:47.987Z,54.74
2023-02-04T13:32:38.518Z,54.40
2023-02-04T13:35:27.733Z,54.29
2023-02-04T13:38:17.062Z,55.16
2023-02-04T13:41:06.538Z,55.12
2023-02-04T13:43:56.350Z,55.28
2023-02-04T13:46:45.622Z,56.35
2023-02-04T13:49:36.270Z,56.79
2023-02-04T13:52:25.589Z,57.23
2023-02-04T13:55:14.843Z,58.34
2023-02-04T13:58:04.058Z,58.41
2023-02-04T14:00:57.607Z,58.82
2023-02-04T14:03:47.342Z,58.83
2023-02-04T14:06:43.598Z,59.31
2023-02-04T14:09:32.959Z,59.31
2023-02-04T14:12:22.212Z,59.85
2023-02-04T14:15:11.960Z,59.84
2023-02-04T14:18:01.371Z,60.21
2023-02-04T14:20:50.691Z,59.78
2023-02-04T14:23:41.698Z,59.83
2023-02-04T14:26:31.011Z,59.09
2023-02-04T14:29:20.338Z,58.92
2023-02-04T14:32:09.626Z,58.72
2023-02-04T14:34:58.822Z,59.04
2023-02-04T14:37:48.476Z,59.87
2023-02-04T14:40:39.653Z,59.96
2023-02-04T14:43:29.198Z,60.96
2023-02-04T14:46:18.457Z,61.13
2023-02-04T14:49:07.657Z,62.49
2023-02-04T14:51:57.307Z,62.46
2023-02-04T14:54:46.565Z,63.91
2023-02-04T14:57:37.167Z,64.18
2023-02-04T15:00:26.856Z,65.85
2023-02-04T15:03:16.173Z,66.80
2023-02-04T15:06:06.093Z,68.40
2023-02-04T15:08:55.571Z,69.87
2023-02-04T15:11:44.846Z,70.07
2023-02-04T15:14:35.517Z,70.79
2023-02-04T15:17:24.809Z,70.89
2023-02-04T15:20:14.513Z,71.00
2023-02-04T15:23:03.847Z,71.41
2023-02-04T15:25:57.545Z,72.34
2023-02-04T15:28:46.838Z,72.71
2023-02-04T15:31:37.588Z,73.93
2023-02-04T15:34:26.993Z,75.12
2023-02-04T15:37:16.298Z,75.62
2023-02-04T15:40:06.648Z,78.08
2023-02-04T15:42:56.077Z,77.50
2023-02-04T15:45:45.269Z,79.38
2023-02-04T15:48:35.986Z,80.69
2023-02-04T15:51:25.217Z,80.57
2023-02-04T15:54:14.675Z,82.53
2023-02-04T15:57:03.886Z,83.06
2023-02-04T15:59:53.070Z,82.88
2023-02-04T16:02:42.331Z,84.50
2023-02-04T16:05:33.164Z,83.21
2023-02-04T16:08:22.421Z,82.84
2023-02-04T16:11:11.618Z,83.87
2023-02-04T16:14:00.835Z,83.49
2023-02-04T16:16:50.034Z,82.65
2023-02-04T16:19:39.319Z,80.40
2023-02-04T16:22:29.918Z,80.14
2023-02-04T16:25:19.472Z,80.10
2023-02-04T16:28:08.849Z,80.61
2023-02-04T16:30:58.328Z,80.88
2023-02-04T16:33:47.546Z,80.32
2023-02-04T16:36:37.823Z,80.52
2023-02-04T16:39:28.433Z,79.71
2023-02-04T16:42:17.635Z,79.42
2023-02-04T16:45:07.818Z,79.50
2023-02-04T16:47:57.033Z,79.76
2023-02-04T16:50:46.265Z,79.96
2023-02-04T16:53:35.540Z,80.29
2023-02-04T16:59:19.243Z,79.49
2023-02-04T17:02:08.510Z,79.73
2023-02-04T17:04:57.750Z,79.53
2023-02-04T17:07:47.001Z,79.44
2023-02-04T17:10:54.192Z,78.60
2023-02-04T17:13:44.852Z,78.89
2023-02-04T17:16:34.572Z,78.63
2023-02-04T17:19:24.341Z,78.56
2023-02-04T17:22:13.552Z,78.74
2023-02-04T17:25:02.709Z,78.58
2023-02-04T17:27:53.807Z,78.72
2023-02-04T17:30:44.509Z,78.45
2023-02-04T17:33:34.699Z,78.24
2023-02-04T17:36:23.988Z,78.24
2023-02-04T17:39:13.277Z,78.41
2023-02-04T17:42:02.542Z,78.04
2023-02-04T17:44:51.841Z,77.50
2023-02-04T17:47:42.793Z,77.09
2023-02-04T17:50:33.944Z,77.44
2023-02-04T17:53:23.562Z,77.37
2023-02-04T17:56:14.561Z,77.39
2023-02-04T17:59:03.763Z,77.30
2023-02-04T18:01:53.201Z,77.59
2023-02-04T18:04:43.974Z,77.31
2023-02-04T18:07:33.353Z,77.20
2023-02-04T18:10:29.426Z,77.14
2023-02-04T18:13:21.431Z,76.93
2023-02-04T18:16:26.269Z,77.16
2023-02-04T18:19:21.624Z,77.46
2023-02-04T18:22:16.091Z,77.66
2023-02-04T18:25:15.041Z,77.73
2023-02-04T18:28:15.344Z,77.41
2023-02-04T18:31:18.586Z,77.50
2023-02-04T18:34:21.208Z,77.61
2023-02-04T18:37:30.925Z,78.06
2023-02-04T18:40:32.093Z,77.63
2023-02-04T18:43:27.325Z,77.44
2023-02-04T18:46:26.523Z,77.63
2023-02-04T18:49:25.753Z,77.21
2023-02-04T18:52:20.211Z,77.37
2023-02-04T18:55:25.175Z,77.37
2023-02-04T18:58:29.904Z,77.46
2023-02-04T19:01:27.724Z,77.61
2023-02-04T19:04:23.887Z,77.77
2023-02-04T19:07:14.616Z,77.87
2023-02-04T19:10:28.648Z,78.29
2023-02-04T19:13:22.259Z,78.07
2023-02-04T19:16:24.901Z,78.01
2023-02-04T19:19:36.769Z,77.75
2023-02-04T19:22:38.836Z,78.22
2023-02-04T19:25:35.588Z,78.28
2023-02-04T19:28:30.672Z,78.13
2023-02-04T19:31:20.137Z,78.36
2023-02-04T19:34:26.342Z,78.52
2023-02-04T19:37:24.265Z,78.60
2023-02-04T19:40:28.456Z,78.52
2023-02-04T19:43:24.005Z,78.30
2023-02-04T19:46:24.094Z,78.17
2023-02-04T19:49:23.169Z,78.17
2023-02-04T19:52:44.060Z,78.10
2023-02-04T19:55:37.586Z,77.92
2023-02-04T19:58:38.690Z,78.20
2023-02-04T20:01:28.482Z,77.76
2023-02-04T20:04:21.794Z,77.56
2023-02-04T20:07:20.807Z,77.47
2023-02-04T20:10:24.766Z,77.40
2023-02-04T20:13:20.777Z,77.56
2023-02-04T20:16:39.340Z,77.56
2023-02-04T20:19:37.928Z,77.56
2023-02-04T20:22:45.744Z,77.67
2023-02-04T20:25:41.750Z,77.63
2023-02-04T20:28:41.220Z,77.92
2023-02-04T20:31:41.059Z,77.52
2023-02-04T20:34:30.386Z,77.77
2023-02-04T20:37:27.943Z,77.90
2023-02-04T20:40:22.429Z,77.70
2023-02-04T20:43:15.406Z,77.68
2023-02-04T20:46:08.671Z,77.31
2023-02-04T20:48:59.291Z,77.45
2023-02-04T20:51:48.636Z,77.73
2023-02-04T20:54:38.470Z,77.65
2023-02-04T20:57:27.629Z,77.62
2023-02-04T21:00:29.604Z,77.59
2023-02-04T21:03:24.657Z,77.46
2023-02-04T21:06:25.352Z,77.75
2023-02-04T21:09:25.017Z,77.50
2023-02-04T21:12:14.220Z,77.59
2023-02-04T21:15:03.420Z,77.57
2023-02-04T21:17:52.777Z,77.63
2023-02-04T21:20:42.306Z,77.85
2023-02-04T21:23:32.911Z,77.66
2023-02-04T21:26:22.311Z,78.19
2023-02-04T21:29:11.608Z,78.07
2023-02-04T21:32:00.950Z,78.01
2023-02-04T21:34:50.106Z,78.27
2023-02-04T21:37:39.305Z,78.05
2023-02-04T21:40:30.024Z,78.21
2023-02-04T21:43:19.223Z,78.15
2023-02-04T21:46:08.454Z,78.65
2023-02-04T21:48:58.328Z,78.74
2023-02-04T21:51:47.891Z,78.78
2023-02-04T21:54:37.160Z,78.68
2023-02-04T21:57:28.015Z,79.11
2023-02-04T22:00:18.714Z,78.85
2023-02-04T22:03:12.978Z,78.61
2023-02-04T22:06:02.300Z,78.46
2023-02-04T22:08:51.509Z,79.27
2023-02-04T22:11:40.702Z,79.15
2023-02-04T22:14:31.444Z,78.74
2023-02-04T22:17:20.652Z,78.42
2023-02-04T22:20:12.199Z,78.67
2023-02-04T22:23:01.538Z,79.01
2023-02-04T22:25:50.847Z,78.59
2023-02-04T22:28:40.005Z,79.18
2023-02-04T22:31:30.655Z,78.90
2023-02-04T22:34:19.813Z,78.64
2023-02-04T22:37:09.010Z,78.61
2023-02-04T22:39:58.229Z,78.67
2023-02-04T22:42:47.515Z,78.35
2023-02-04T22:45:36.775Z,78.90
2023-02-04T22:48:27.441Z,79.11
2023-02-04T22:51:16.698Z,78.83
2023-02-04T22:54:06.119Z,78.77
2023-02-04T22:56:57.866Z,79.12
2023-02-04T22:59:47.282Z,78.99
2023-02-04T23:02:36.538Z,78.84
2023-02-04T23:05:27.138Z,78.52
2023-02-04T23:08:17.896Z,78.55
2023-02-04T23:11:07.370Z,78.93
2023-02-04T23:13:56.553Z,78.37
2023-02-04T23:16:47.126Z,78.63
2023-02-04T23:19:36.526Z,78.59
2023-02-04T23:22:27.121Z,78.61
2023-02-04T23:25:16.605Z,78.20
2023-02-04T23:28:06.303Z,78.52
2023-02-04T23:30:55.717Z,78.23
2023-02-04T23:33:44.905Z,78.29
2023-02-04T23:36:36.571Z,78.20
2023-02-04T23:39:27.350Z,78.22
2023-02-04T23:42:16.599Z,78.36
2023-02-04T23:45:06.842Z,78.16
2023-02-04T23:47:55.983Z,78.25
2023-02-04T23:50:47.957Z,78.29
2023-02-04T23:53:37.242Z,78.33
2023-02-04T23:56:28.253Z,78.04
2023-02-04T23:59:17.473Z,77.86
